createdAt,value
2023-03-04T00:00:08.568Z,58.69
2023-03-04T00:01:08.531Z,58.98
2023-03-04T00:02:08.592Z,59.35
2023-03-04T00:03:08.567Z,59.26
2023-03-04T00:04:08.493Z,59.35
2023-03-04T00:05:08.452Z,59.26
2023-03-04T00:06:08.436Z,59.26
2023-03-04T00:07:08.402Z,59.07
2023-03-04T00:08:08.389Z,59.35
2023-03-04T00:09:08.365Z,59.35
2023-03-04T00:10:08.347Z,59.26
2023-03-04T00:11:08.322Z,59.26
2023-03-04T00:12:08.304Z,59.26
2023-03-04T00:13:08.280Z,59.35
2023-03-04T00:14:08.266Z,59.35
2023-03-04T00:15:08.238Z,59.35
2023-03-04T00:16:08.255Z,59.26
2023-03-04T00:17:08.210Z,59.35
2023-03-04T00:18:08.192Z,59.26
2023-03-04T00:19:08.163Z,59.54
2023-03-04T00:20:08.145Z,59.45
2023-03-04T00:21:08.120Z,59.26
2023-03-04T00:22:08.106Z,59.45
2023-03-04T00:23:08.086Z,59.45
2023-03-04T00:24:08.052Z,59.45
2023-03-04T00:25:08.032Z,59.35
2023-03-04T00:26:08.011Z,59.26
2023-03-04T00:27:07.998Z,59.17
2023-03-04T00:28:07.978Z,59.26
2023-03-04T00:29:07.943Z,59.35
2023-03-04T00:30:07.940Z,59.64
2023-03-04T00:31:07.898Z,59.26
2023-03-04T00:32:08.043Z,59.26
2023-03-04T00:33:07.876Z,58.98
2023-03-04T00:34:07.856Z,59.35
2023-03-04T00:35:07.819Z,59.17
2023-03-04T00:36:07.803Z,59.07
2023-03-04T00:37:07.776Z,59.35
2023-03-04T00:38:07.758Z,59.45
2023-03-04T00:39:07.733Z,59.26
2023-03-04T00:40:07.722Z,59.26
2023-03-04T00:41:07.696Z,59.07
2023-03-04T00:42:07.672Z,59.45
2023-03-04T00:43:07.657Z,59.64
2023-03-04T00:44:07.649Z,59.73
2023-03-04T00:45:07.614Z,59.64
2023-03-04T00:46:07.662Z,59.54
2023-03-04T00:47:07.567Z,59.64
2023-03-04T00:48:07.548Z,59.45
2023-03-04T00:49:07.530Z,59.64
2023-03-04T00:50:07.507Z,59.45
2023-03-04T00:51:07.482Z,59.73
2023-03-04T00:52:07.461Z,59.73
2023-03-04T00:53:07.440Z,59.54
2023-03-04T00:54:07.416Z,59.35
2023-03-04T00:55:07.397Z,59.64
2023-03-04T00:56:07.378Z,59.45
2023-03-04T00:57:07.352Z,59.35
2023-03-04T00:58:07.330Z,59.45
2023-03-04T00:59:07.316Z,59.54
2023-03-04T01:00:07.285Z,60.02
2023-03-04T01:01:07.293Z,59.83
2023-03-04T01:02:07.317Z,60.11
2023-03-04T01:03:07.225Z,60.21
2023-03-04T01:04:07.197Z,60.39
2023-03-04T01:05:07.175Z,59.64
2023-03-04T01:06:07.158Z,59.73
2023-03-04T01:07:07.146Z,59.54
2023-03-04T01:08:07.134Z,60.21
2023-03-04T01:09:07.145Z,60.11
2023-03-04T01:10:07.069Z,59.92
2023-03-04T01:11:07.048Z,60.02
2023-03-04T01:12:07.028Z,60.30
2023-03-04T01:13:07.005Z,60.02
2023-03-04T01:14:06.985Z,59.92
2023-03-04T01:15:06.967Z,60.11
2023-03-04T01:16:06.947Z,59.83
2023-03-04T01:17:06.932Z,60.02
2023-03-04T01:18:06.909Z,60.02
2023-03-04T01:19:06.875Z,60.21
2023-03-04T01:20:06.863Z,60.02
2023-03-04T01:21:06.833Z,59.92
2023-03-04T01:22:06.813Z,59.83
2023-03-04T01:23:06.794Z,59.92
2023-03-04T01:24:06.769Z,60.39
2023-03-04T01:25:06.752Z,60.39
2023-03-04T01:26:06.724Z,60.39
2023-03-04T01:27:06.710Z,60.21
2023-03-04T01:28:06.683Z,60.30
2023-03-04T01:29:06.665Z,60.30
2023-03-04T01:30:06.641Z,60.30
2023-03-04T01:31:06.662Z,60.39
2023-03-04T01:32:06.632Z,60.68
2023-03-04T01:33:06.580Z,60.49
2023-03-04T01:34:06.556Z,60.77
2023-03-04T01:35:06.534Z,60.39
2023-03-04T01:36:06.514Z,60.11
2023-03-04T01:37:06.492Z,60.21
2023-03-04T01:38:06.471Z,60.02
2023-03-04T01:39:06.450Z,60.11
2023-03-04T01:40:06.429Z,60.11
2023-03-04T01:41:06.409Z,60.77
2023-03-04T01:42:06.390Z,60.77
2023-03-04T01:43:06.363Z,60.68
2023-03-04T01:44:06.355Z,60.68
2023-03-04T01:45:06.327Z,61.15
2023-03-04T01:46:06.394Z,60.77
2023-03-04T01:47:06.282Z,60.49
2023-03-04T01:48:06.256Z,60.77
2023-03-04T01:49:06.292Z,60.77
2023-03-04T01:50:06.217Z,60.86
2023-03-04T01:51:06.210Z,60.77
2023-03-04T01:52:06.179Z,60.86
2023-03-04T01:53:06.151Z,60.68
2023-03-04T01:54:06.131Z,60.58
2023-03-04T01:55:06.127Z,60.58
2023-03-04T01:56:06.086Z,60.77
2023-03-04T01:57:06.064Z,60.77
2023-03-04T01:58:06.044Z,60.86
2023-03-04T01:59:06.025Z,60.68
2023-03-04T02:00:06.002Z,60.58
2023-03-04T02:01:05.979Z,60.58
2023-03-04T02:02:05.969Z,60.77
2023-03-04T02:03:05.945Z,60.11
2023-03-04T02:04:05.982Z,60.30
2023-03-04T02:05:05.900Z,60.39
2023-03-04T02:06:05.874Z,60.02
2023-03-04T02:07:05.850Z,60.30
2023-03-04T02:08:05.854Z,60.02
2023-03-04T02:09:05.805Z,59.86
2023-03-04T02:10:05.807Z,59.38
2023-03-04T02:11:05.774Z,59.67
2023-03-04T02:12:05.741Z,59.76
2023-03-04T02:13:05.730Z,59.67
2023-03-04T02:14:05.743Z,59.57
2023-03-04T02:15:05.706Z,59.67
2023-03-04T02:16:05.774Z,59.57
2023-03-04T02:17:05.660Z,59.67
2023-03-04T02:18:05.621Z,59.00
2023-03-04T02:19:05.595Z,59.29
2023-03-04T02:20:05.580Z,59.19
2023-03-04T02:21:05.552Z,59.19
2023-03-04T02:22:05.538Z,59.48
2023-03-04T02:23:05.513Z,59.19
2023-03-04T02:24:05.493Z,59.38
2023-03-04T02:25:05.469Z,59.22
2023-03-04T02:26:05.450Z,59.38
2023-03-04T02:27:05.429Z,59.41
2023-03-04T02:28:05.406Z,58.94
2023-03-04T02:29:05.386Z,58.84
2023-03-04T02:30:05.369Z,58.84
2023-03-04T02:31:05.382Z,58.75
2023-03-04T02:32:05.359Z,58.84
2023-03-04T02:33:05.315Z,58.84
2023-03-04T02:34:05.280Z,58.75
2023-03-04T02:35:05.266Z,58.75
2023-03-04T02:36:05.239Z,58.94
2023-03-04T02:37:05.218Z,58.84
2023-03-04T02:38:05.197Z,58.75
2023-03-04T02:39:05.191Z,58.94
2023-03-04T02:40:05.162Z,58.78
2023-03-04T02:41:05.137Z,58.97
2023-03-04T02:42:05.124Z,58.97
2023-03-04T02:43:05.106Z,58.97
2023-03-04T02:44:05.078Z,58.97
2023-03-04T02:45:05.055Z,58.87
2023-03-04T02:46:05.036Z,58.87
2023-03-04T02:47:05.022Z,58.97
2023-03-04T02:48:04.997Z,58.87
2023-03-04T02:49:04.975Z,58.59
2023-03-04T02:50:04.954Z,58.59
2023-03-04T02:51:04.930Z,58.78
2023-03-04T02:52:04.917Z,58.59
2023-03-04T02:53:05.112Z,58.69
2023-03-04T02:54:04.892Z,59.06
2023-03-04T02:55:04.858Z,58.78
2023-03-04T02:56:04.833Z,59.16
2023-03-04T02:57:04.813Z,58.40
2023-03-04T02:58:04.793Z,58.59
2023-03-04T02:59:04.770Z,58.87
2023-03-04T03:00:04.752Z,58.87
2023-03-04T03:01:04.742Z,58.91
2023-03-04T03:02:04.832Z,58.81
2023-03-04T03:03:04.773Z,58.81
2023-03-04T03:04:04.680Z,58.81
2023-03-04T03:05:04.658Z,58.91
2023-03-04T03:06:04.704Z,58.53
2023-03-04T03:07:04.612Z,58.81
2023-03-04T03:08:04.594Z,58.81
2023-03-04T03:09:04.574Z,58.91
2023-03-04T03:10:04.566Z,59.00
2023-03-04T03:11:04.544Z,58.91
2023-03-04T03:12:04.513Z,59.00
2023-03-04T03:13:04.504Z,58.91
2023-03-04T03:14:04.489Z,58.81
2023-03-04T03:15:04.460Z,59.00
2023-03-04T03:16:04.549Z,58.53
2023-03-04T03:17:04.415Z,58.91
2023-03-04T03:18:04.395Z,58.91
2023-03-04T03:19:04.377Z,59.00
2023-03-04T03:20:04.362Z,59.00
2023-03-04T03:21:04.338Z,59.00
2023-03-04T03:22:04.317Z,59.09
2023-03-04T03:23:04.300Z,59.00
2023-03-04T03:24:04.278Z,58.91
2023-03-04T03:25:04.263Z,59.28
2023-03-04T03:26:04.236Z,59.28
2023-03-04T03:27:04.220Z,59.28
2023-03-04T03:28:04.199Z,59.09
2023-03-04T03:29:04.178Z,58.81
2023-03-04T03:30:04.158Z,58.91
2023-03-04T03:31:04.146Z,58.91
2023-03-04T03:32:04.154Z,58.81
2023-03-04T03:33:04.105Z,58.91
2023-03-04T03:34:04.078Z,58.81
2023-03-04T03:35:04.069Z,58.81
2023-03-04T03:36:04.152Z,59.00
2023-03-04T03:37:04.039Z,58.81
2023-03-04T03:38:04.000Z,58.91
2023-03-04T03:39:03.982Z,58.81
2023-03-04T03:40:03.963Z,58.81
2023-03-04T03:41:03.952Z,58.81
2023-03-04T03:42:03.927Z,59.28
2023-03-04T03:43:03.904Z,59.38
2023-03-04T03:44:03.883Z,59.28
2023-03-04T03:45:03.873Z,59.47
2023-03-04T03:46:03.870Z,59.38
2023-03-04T03:47:03.830Z,59.47
2023-03-04T03:48:03.807Z,59.38
2023-03-04T03:49:03.798Z,59.28
2023-03-04T03:50:03.780Z,59.28
2023-03-04T03:51:03.753Z,59.00
2023-03-04T03:52:03.737Z,58.91
2023-03-04T03:53:03.727Z,59.28
2023-03-04T03:54:03.693Z,59.47
2023-03-04T03:55:03.671Z,59.38
2023-03-04T03:56:03.654Z,59.28
2023-03-04T03:57:03.634Z,59.38
2023-03-04T03:58:03.617Z,59.47
2023-03-04T03:59:03.596Z,59.28
2023-03-04T04:00:03.578Z,59.47
2023-03-04T04:01:03.563Z,59.28
2023-03-04T04:02:03.637Z,59.47
2023-03-04T04:03:03.646Z,59.38
2023-03-04T04:04:03.500Z,59.47
2023-03-04T04:05:03.495Z,59.47
2023-03-04T04:06:03.461Z,59.47
2023-03-04T04:07:03.439Z,59.47
2023-03-04T04:08:03.421Z,59.47
2023-03-04T04:09:03.416Z,59.31
2023-03-04T04:10:03.392Z,59.50
2023-03-04T04:11:03.377Z,59.50
2023-03-04T04:12:03.343Z,59.47
2023-03-04T04:13:03.327Z,59.38
2023-03-04T04:14:03.307Z,59.38
2023-03-04T04:15:03.284Z,59.41
2023-03-04T04:16:03.265Z,59.38
2023-03-04T04:17:03.246Z,59.41
2023-03-04T04:18:03.232Z,59.41
2023-03-04T04:19:03.211Z,59.50
2023-03-04T04:20:03.187Z,59.41
2023-03-04T04:21:03.170Z,59.60
2023-03-04T04:22:03.152Z,59.50
2023-03-04T04:23:03.156Z,59.50
2023-03-04T04:24:03.112Z,59.41
2023-03-04T04:25:03.102Z,59.79
2023-03-04T04:26:03.073Z,59.31
2023-03-04T04:27:03.062Z,59.12
2023-03-04T04:28:03.033Z,59.69
2023-03-04T04:29:03.014Z,59.88
2023-03-04T04:30:03.005Z,59.88
2023-03-04T04:31:03.060Z,59.88
2023-03-04T04:32:03.096Z,59.88
2023-03-04T04:33:02.946Z,59.50
2023-03-04T04:34:02.928Z,59.60
2023-03-04T04:35:02.898Z,59.69
2023-03-04T04:36:02.881Z,59.50
2023-03-04T04:37:02.859Z,59.69
2023-03-04T04:38:02.837Z,59.69
2023-03-04T04:39:02.821Z,59.69
2023-03-04T04:40:02.817Z,59.69
2023-03-04T04:41:02.782Z,59.69
2023-03-04T04:42:02.760Z,59.98
2023-03-04T04:43:02.760Z,59.79
2023-03-04T04:44:02.729Z,59.98
2023-03-04T04:45:02.704Z,59.88
2023-03-04T04:46:02.750Z,59.60
2023-03-04T04:47:02.665Z,59.79
2023-03-04T04:48:02.643Z,59.88
2023-03-04T04:49:02.629Z,59.88
2023-03-04T04:50:02.626Z,59.88
2023-03-04T04:51:02.665Z,59.79
2023-03-04T04:52:02.590Z,59.79
2023-03-04T04:53:02.558Z,59.79
2023-03-04T04:54:02.542Z,59.60
2023-03-04T04:55:02.528Z,59.69
2023-03-04T04:56:02.512Z,59.69
2023-03-04T04:57:02.473Z,59.69
2023-03-04T04:58:02.458Z,59.88
2023-03-04T04:59:02.438Z,60.07
2023-03-04T05:00:02.434Z,59.88
2023-03-04T05:01:02.418Z,59.88
2023-03-04T05:02:02.389Z,59.88
2023-03-04T05:03:02.424Z,59.88
2023-03-04T05:04:02.342Z,59.79
2023-03-04T05:05:02.327Z,59.69
2023-03-04T05:06:02.305Z,59.60
2023-03-04T05:07:02.290Z,59.88
2023-03-04T05:08:02.266Z,59.79
2023-03-04T05:09:02.258Z,59.69
2023-03-04T05:10:02.228Z,59.79
2023-03-04T05:11:02.215Z,59.50
2023-03-04T05:12:02.196Z,59.69
2023-03-04T05:13:02.174Z,59.69
2023-03-04T05:14:02.152Z,59.79
2023-03-04T05:15:02.163Z,60.17
2023-03-04T05:16:02.142Z,60.36
2023-03-04T05:17:02.099Z,60.26
2023-03-04T05:18:02.076Z,60.07
2023-03-04T05:19:02.061Z,60.36
2023-03-04T05:20:02.052Z,60.26
2023-03-04T05:21:02.032Z,60.26
2023-03-04T05:22:02.013Z,60.26
2023-03-04T05:23:01.989Z,60.26
2023-03-04T05:24:01.966Z,60.36
2023-03-04T05:25:01.948Z,60.26
2023-03-04T05:26:01.927Z,60.26
2023-03-04T05:27:01.909Z,60.45
2023-03-04T05:28:01.892Z,60.07
2023-03-04T05:29:01.869Z,59.69
2023-03-04T05:30:01.851Z,59.69
2023-03-04T05:31:01.883Z,59.98
2023-03-04T05:32:01.873Z,59.88
2023-03-04T05:33:01.803Z,60.36
2023-03-04T05:34:01.786Z,60.26
2023-03-04T05:35:01.759Z,60.26
2023-03-04T05:36:01.749Z,60.26
2023-03-04T05:37:01.725Z,60.26
2023-03-04T05:38:01.699Z,60.36
2023-03-04T05:39:01.686Z,60.36
2023-03-04T05:40:01.664Z,59.98
2023-03-04T05:41:01.648Z,60.07
2023-03-04T05:42:01.628Z,60.26
2023-03-04T05:43:01.606Z,60.36
2023-03-04T05:44:01.585Z,60.36
2023-03-04T05:45:01.605Z,60.07
2023-03-04T05:46:01.569Z,59.98
2023-03-04T05:47:01.530Z,60.29
2023-03-04T05:48:01.513Z,60.26
2023-03-04T05:49:01.492Z,60.19
2023-03-04T05:50:01.475Z,59.88
2023-03-04T05:51:01.457Z,60.38
2023-03-04T05:52:01.450Z,60.38
2023-03-04T05:53:01.422Z,60.29
2023-03-04T05:54:01.406Z,60.19
2023-03-04T05:55:01.377Z,60.19
2023-03-04T05:56:01.363Z,60.00
2023-03-04T05:57:01.340Z,60.10
2023-03-04T05:58:01.326Z,59.91
2023-03-04T05:59:01.307Z,60.00
2023-03-04T06:00:01.285Z,60.19
2023-03-04T06:01:01.265Z,60.00
2023-03-04T06:02:01.259Z,60.48
2023-03-04T06:03:01.331Z,60.29
2023-03-04T06:04:01.239Z,60.00
2023-03-04T06:05:01.190Z,60.10
2023-03-04T06:06:01.180Z,60.19
2023-03-04T06:07:01.162Z,60.48
2023-03-04T06:08:01.136Z,60.19
2023-03-04T06:09:01.124Z,60.00
2023-03-04T06:10:01.103Z,60.38
2023-03-04T06:11:01.077Z,60.58
2023-03-04T06:12:01.056Z,60.58
2023-03-04T06:13:01.038Z,59.91
2023-03-04T06:14:01.043Z,60.29
2023-03-04T06:15:01.000Z,60.19
2023-03-04T06:16:01.031Z,60.10
2023-03-04T06:17:00.963Z,60.38
2023-03-04T06:18:00.948Z,60.29
2023-03-04T06:19:00.926Z,60.48
2023-03-04T06:20:00.912Z,60.10
2023-03-04T06:21:00.902Z,59.91
2023-03-04T06:22:00.874Z,60.29
2023-03-04T06:23:00.850Z,60.29
2023-03-04T06:24:00.831Z,60.38
2023-03-04T06:25:00.813Z,59.91
2023-03-04T06:26:00.834Z,60.19
2023-03-04T06:27:00.778Z,60.48
2023-03-04T06:28:00.763Z,60.00
2023-03-04T06:29:00.741Z,60.19
2023-03-04T06:30:00.727Z,60.29
2023-03-04T06:31:00.770Z,60.00
2023-03-04T06:32:00.733Z,60.10
2023-03-04T06:33:00.670Z,60.19
2023-03-04T06:34:00.646Z,60.48
2023-03-04T06:35:00.627Z,60.19
2023-03-04T06:36:00.655Z,60.19
2023-03-04T06:37:00.608Z,59.91
2023-03-04T06:38:00.575Z,59.91
2023-03-04T06:39:00.556Z,60.00
2023-03-04T06:40:00.549Z,59.72
2023-03-04T06:41:00.512Z,60.00
2023-03-04T06:42:00.508Z,60.38
2023-03-04T06:43:00.493Z,60.29
2023-03-04T06:44:00.453Z,60.00
2023-03-04T06:45:00.434Z,60.29
2023-03-04T06:46:00.420Z,60.58
2023-03-04T06:47:00.511Z,60.29
2023-03-04T06:48:00.387Z,60.29
2023-03-04T06:49:00.362Z,60.29
2023-03-04T06:50:00.346Z,60.48
2023-03-04T06:51:00.325Z,60.00
2023-03-04T06:52:00.312Z,60.29
2023-03-04T06:53:00.288Z,60.10
2023-03-04T06:54:00.270Z,59.91
2023-03-04T06:55:00.258Z,60.48
2023-03-04T06:56:00.246Z,60.58
2023-03-04T06:57:00.217Z,60.41
2023-03-04T06:58:00.209Z,60.61
2023-03-04T06:59:00.191Z,60.00
2023-03-04T07:00:00.159Z,60.22
2023-03-04T07:01:00.230Z,60.22
2023-03-04T07:02:00.128Z,60.03
2023-03-04T07:03:00.121Z,60.22
2023-03-04T07:04:00.199Z,60.22
2023-03-04T07:05:00.066Z,59.94
2023-03-04T07:06:00.051Z,59.94
2023-03-04T07:07:00.036Z,59.75
2023-03-04T07:08:00.010Z,59.75
2023-03-04T07:08:59.992Z,59.94
2023-03-04T07:09:59.966Z,59.75
2023-03-04T07:10:59.948Z,59.75
2023-03-04T07:11:59.932Z,59.75
2023-03-04T07:12:59.924Z,59.56
2023-03-04T07:13:59.899Z,59.84
2023-03-04T07:14:59.888Z,59.75
2023-03-04T07:15:59.865Z,59.94
2023-03-04T07:16:59.854Z,59.84
2023-03-04T07:17:59.823Z,59.84
2023-03-04T07:18:59.801Z,59.84
2023-03-04T07:19:59.792Z,59.84
2023-03-04T07:20:59.782Z,59.84
2023-03-04T07:21:59.751Z,59.75
2023-03-04T07:22:59.731Z,59.66
2023-03-04T07:23:59.712Z,60.16
2023-03-04T07:24:59.700Z,59.88
2023-03-04T07:25:59.840Z,59.97
2023-03-04T07:26:59.659Z,59.50
2023-03-04T07:27:59.638Z,59.59
2023-03-04T07:28:59.641Z,59.41
2023-03-04T07:29:59.602Z,59.50
2023-03-04T07:30:59.684Z,59.50
2023-03-04T07:31:59.658Z,59.41
2023-03-04T07:32:59.553Z,59.50
2023-03-04T07:33:59.537Z,59.41
2023-03-04T07:34:59.508Z,59.50
2023-03-04T07:35:59.492Z,59.50
2023-03-04T07:36:59.473Z,59.50
2023-03-04T07:37:59.460Z,59.59
2023-03-04T07:38:59.442Z,59.59
2023-03-04T07:39:59.417Z,59.50
2023-03-04T07:40:59.428Z,59.41
2023-03-04T07:41:59.386Z,59.12
2023-03-04T07:42:59.373Z,59.03
2023-03-04T07:43:59.354Z,58.93
2023-03-04T07:44:59.347Z,58.65
2023-03-04T07:45:59.385Z,58.93
2023-03-04T07:46:59.295Z,59.12
2023-03-04T07:47:59.278Z,59.50
2023-03-04T07:48:59.257Z,59.03
2023-03-04T07:49:59.237Z,59.03
2023-03-04T07:50:59.225Z,58.84
2023-03-04T07:51:59.197Z,58.77
2023-03-04T07:52:59.183Z,59.15
2023-03-04T07:53:59.171Z,59.05
2023-03-04T07:54:59.154Z,59.05
2023-03-04T07:56:00.466Z,59.05
2023-03-04T07:56:59.115Z,59.05
2023-03-04T07:57:59.094Z,58.96
2023-03-04T07:58:59.075Z,58.86
2023-03-04T07:59:59.055Z,58.67
2023-03-04T08:00:59.042Z,59.15
2023-03-04T08:01:59.017Z,59.05
2023-03-04T08:02:59.001Z,59.34
2023-03-04T08:03:59.049Z,58.58
2023-03-04T08:04:58.969Z,59.05
2023-03-04T08:05:58.959Z,58.86
2023-03-04T08:06:58.931Z,58.77
2023-03-04T08:07:58.928Z,58.67
2023-03-04T08:08:58.901Z,58.67
2023-03-04T08:09:58.878Z,58.77
2023-03-04T08:10:58.873Z,58.77
2023-03-04T08:11:58.847Z,58.58
2023-03-04T08:12:58.844Z,58.58
2023-03-04T08:13:58.819Z,58.61
2023-03-04T08:14:58.786Z,58.61
2023-03-04T08:15:58.903Z,58.58
2023-03-04T08:16:58.753Z,58.58
2023-03-04T08:17:59.776Z,58.70
2023-03-04T08:18:58.723Z,58.42
2023-03-04T08:19:58.843Z,58.89
2023-03-04T08:20:58.683Z,59.08
2023-03-04T08:21:58.662Z,58.61
2023-03-04T08:22:58.645Z,58.51
2023-03-04T08:23:58.678Z,58.33
2023-03-04T08:24:58.693Z,58.51
2023-03-04T08:25:58.589Z,58.14
2023-03-04T08:26:58.568Z,58.14
2023-03-04T08:27:58.556Z,58.04
2023-03-04T08:28:58.532Z,58.42
2023-03-04T08:29:58.520Z,58.42
2023-03-04T08:30:58.519Z,58.33
2023-03-04T08:31:58.683Z,57.95
2023-03-04T08:32:58.506Z,57.85
2023-03-04T08:33:58.458Z,58.04
2023-03-04T08:34:58.441Z,58.23
2023-03-04T08:35:58.433Z,58.14
2023-03-04T08:36:58.392Z,58.07
2023-03-04T08:37:59.716Z,58.17
2023-03-04T08:38:58.356Z,58.17
2023-03-04T08:39:58.347Z,58.17
2023-03-04T08:40:58.325Z,58.17
2023-03-04T08:41:58.304Z,58.17
2023-03-04T08:42:58.286Z,58.17
2023-03-04T08:43:58.286Z,58.07
2023-03-04T08:44:58.253Z,58.07
2023-03-04T08:45:58.261Z,58.07
2023-03-04T08:46:58.215Z,58.17
2023-03-04T08:47:58.197Z,57.69
2023-03-04T08:48:58.180Z,57.88
2023-03-04T08:49:58.176Z,57.69
2023-03-04T08:50:58.152Z,57.88
2023-03-04T08:51:58.134Z,57.59
2023-03-04T08:52:58.115Z,57.50
2023-03-04T08:53:58.099Z,57.69
2023-03-04T08:54:58.076Z,57.79
2023-03-04T08:55:58.062Z,57.88
2023-03-04T08:56:58.044Z,57.31
2023-03-04T08:57:58.120Z,57.50
2023-03-04T08:58:58.007Z,57.50
2023-03-04T08:59:57.994Z,57.50
2023-03-04T09:00:57.973Z,57.50
2023-03-04T09:01:57.974Z,57.50
2023-03-04T09:02:57.940Z,57.69
2023-03-04T09:03:58.014Z,57.69
2023-03-04T09:04:57.901Z,57.88
2023-03-04T09:05:57.884Z,57.50
2023-03-04T09:06:57.868Z,57.40
2023-03-04T09:07:57.852Z,57.21
2023-03-04T09:08:57.837Z,57.50
2023-03-04T09:09:57.826Z,57.50
2023-03-04T09:10:57.797Z,57.81
2023-03-04T09:11:57.788Z,57.79
2023-03-04T09:12:57.768Z,57.24
2023-03-04T09:13:57.784Z,57.15
2023-03-04T09:15:10.313Z,57.15
2023-03-04T09:15:57.812Z,57.15
2023-03-04T09:16:57.697Z,57.53
2023-03-04T09:17:57.695Z,57.53
2023-03-04T09:18:57.661Z,56.87
2023-03-04T09:19:57.655Z,56.87
2023-03-04T09:20:57.636Z,56.87
2023-03-04T09:21:57.615Z,56.96
2023-03-04T09:22:57.595Z,57.06
2023-03-04T09:23:57.576Z,56.77
2023-03-04T09:24:57.558Z,56.87
2023-03-04T09:25:57.541Z,56.80
2023-03-04T09:26:57.521Z,57.09
2023-03-04T09:27:57.509Z,56.99
2023-03-04T09:28:57.508Z,56.70
2023-03-04T09:29:57.472Z,56.99
2023-03-04T09:30:57.532Z,56.80
2023-03-04T09:31:57.462Z,56.51
2023-03-04T09:32:57.423Z,56.73
2023-03-04T09:33:57.403Z,55.78
2023-03-04T09:34:57.392Z,56.35
2023-03-04T09:35:57.435Z,56.07
2023-03-04T09:36:57.356Z,56.07
2023-03-04T09:37:57.334Z,56.07
2023-03-04T09:38:57.319Z,55.88
2023-03-04T09:39:57.306Z,56.07
2023-03-04T09:40:57.285Z,56.07
2023-03-04T09:41:57.274Z,55.88
2023-03-04T09:42:57.262Z,56.16
2023-03-04T09:43:57.244Z,55.97
2023-03-04T09:44:57.225Z,56.16
2023-03-04T09:45:57.215Z,56.26
2023-03-04T09:46:57.200Z,56.10
2023-03-04T09:47:57.169Z,55.71
2023-03-04T09:48:57.165Z,55.71
2023-03-04T09:49:57.134Z,55.81
2023-03-04T09:50:57.124Z,55.33
2023-03-04T09:51:57.104Z,55.33
2023-03-04T09:52:57.084Z,55.24
2023-03-04T09:53:57.069Z,55.05
2023-03-04T09:54:57.052Z,54.96
2023-03-04T09:55:57.034Z,54.86
2023-03-04T09:56:57.017Z,55.15
2023-03-04T09:57:57.000Z,55.17
2023-03-04T09:58:56.993Z,54.89
2023-03-04T09:59:56.970Z,54.89
2023-03-04T10:00:57.051Z,54.89
2023-03-04T10:01:56.939Z,54.32
2023-03-04T10:02:56.919Z,54.60
2023-03-04T10:03:56.949Z,54.60
2023-03-04T10:04:56.968Z,54.32
2023-03-04T10:05:56.873Z,54.50
2023-03-04T10:06:56.863Z,54.50
2023-03-04T10:07:56.841Z,54.50
2023-03-04T10:08:56.826Z,54.50
2023-03-04T10:09:56.804Z,54.41
2023-03-04T10:10:56.870Z,55.08
2023-03-04T10:11:56.770Z,55.17
2023-03-04T10:12:56.759Z,54.60
2023-03-04T10:13:56.737Z,54.41
2023-03-04T10:14:56.724Z,54.60
2023-03-04T10:15:56.736Z,54.22
2023-03-04T10:16:56.707Z,54.25
2023-03-04T10:17:56.675Z,54.03
2023-03-04T10:18:56.671Z,54.13
2023-03-04T10:19:56.673Z,54.60
2023-03-04T10:20:56.625Z,54.22
2023-03-04T10:21:56.609Z,54.15
2023-03-04T10:22:56.657Z,54.03
2023-03-04T10:23:59.402Z,54.06
2023-03-04T10:24:56.568Z,54.06
2023-03-04T10:25:56.605Z,54.15
2023-03-04T10:26:56.529Z,54.06
2023-03-04T10:27:56.521Z,53.49
2023-03-04T10:28:56.493Z,53.49
2023-03-04T10:29:56.478Z,53.30
2023-03-04T10:30:56.473Z,53.20
2023-03-04T10:31:56.652Z,52.82
2023-03-04T10:32:56.424Z,53.11
2023-03-04T10:33:56.418Z,53.39
2023-03-04T10:34:56.390Z,53.30
2023-03-04T10:35:56.420Z,53.11
2023-03-04T10:36:56.358Z,53.20
2023-03-04T10:37:56.339Z,53.20
2023-03-04T10:38:56.320Z,53.49
2023-03-04T10:39:56.310Z,53.39
2023-03-04T10:40:56.292Z,53.39
2023-03-04T10:41:56.326Z,53.20
2023-03-04T10:42:56.278Z,53.39
2023-03-04T10:43:56.246Z,52.92
2023-03-04T10:44:56.226Z,53.01
2023-03-04T10:45:56.224Z,52.92
2023-03-04T10:46:56.193Z,53.01
2023-03-04T10:47:56.195Z,52.92
2023-03-04T10:48:56.156Z,52.92
2023-03-04T10:49:56.149Z,53.11
2023-03-04T10:50:56.125Z,52.82
2023-03-04T10:51:57.676Z,52.82
2023-03-04T10:52:56.103Z,52.92
2023-03-04T10:53:56.086Z,52.72
2023-03-04T10:54:56.068Z,52.63
2023-03-04T10:55:56.044Z,52.66
2023-03-04T10:56:56.029Z,53.04
2023-03-04T10:57:57.871Z,53.04
2023-03-04T10:58:56.023Z,52.47
2023-03-04T10:59:55.996Z,52.28
2023-03-04T11:00:55.990Z,52.09
2023-03-04T11:01:55.946Z,52.47
2023-03-04T11:02:55.929Z,52.18
2023-03-04T11:03:55.956Z,51.99
2023-03-04T11:04:55.898Z,52.09
2023-03-04T11:05:55.882Z,52.01
2023-03-04T11:06:55.868Z,51.42
2023-03-04T11:07:57.544Z,51.51
2023-03-04T11:08:55.855Z,51.61
2023-03-04T11:09:58.337Z,51.70
2023-03-04T11:10:55.797Z,51.89
2023-03-04T11:11:55.789Z,52.11
2023-03-04T11:12:55.779Z,51.64
2023-03-04T11:13:55.756Z,51.54
2023-03-04T11:14:55.815Z,51.64
2023-03-04T11:15:58.141Z,51.64
2023-03-04T11:16:55.800Z,51.64
2023-03-04T11:17:55.695Z,51.70
2023-03-04T11:18:55.676Z,51.80
2023-03-04T11:19:55.656Z,51.42
2023-03-04T11:20:55.648Z,51.32
2023-03-04T11:21:55.627Z,51.89
2023-03-04T11:22:55.619Z,51.80
2023-03-04T11:23:55.602Z,51.61
2023-03-04T11:24:55.572Z,51.99
2023-03-04T11:25:55.563Z,52.09
2023-03-04T11:26:55.546Z,52.09
2023-03-04T11:27:55.534Z,51.89
2023-03-04T11:28:55.538Z,52.18
2023-03-04T11:29:55.501Z,52.28
2023-03-04T11:30:55.492Z,52.47
2023-03-04T11:31:55.720Z,52.56
2023-03-04T11:32:55.452Z,52.68
2023-03-04T11:33:55.439Z,52.09
2023-03-04T11:34:55.419Z,52.09
2023-03-04T11:35:55.414Z,52.09
2023-03-04T11:36:55.395Z,51.70
2023-03-04T11:37:55.381Z,52.47
2023-03-04T11:38:55.380Z,52.56
2023-03-04T11:39:55.356Z,52.47
2023-03-04T11:40:55.340Z,52.18
2023-03-04T11:41:55.329Z,52.56
2023-03-04T11:42:55.326Z,52.28
2023-03-04T11:43:55.300Z,52.37
2023-03-04T11:44:55.286Z,52.18
2023-03-04T11:45:55.379Z,52.28
2023-03-04T11:46:55.271Z,52.09
2023-03-04T11:47:55.245Z,52.18
2023-03-04T11:48:55.237Z,52.37
2023-03-04T11:49:55.220Z,52.28
2023-03-04T11:50:55.199Z,52.37
2023-03-04T11:51:55.207Z,52.66
2023-03-04T11:52:55.172Z,52.66
2023-03-04T11:53:55.156Z,51.99
2023-03-04T11:54:55.138Z,52.66
2023-03-04T11:55:55.162Z,51.99
2023-03-04T11:56:55.096Z,52.66
2023-03-04T11:57:55.079Z,52.56
2023-03-04T11:58:55.064Z,52.25
2023-03-04T11:59:55.070Z,52.53
2023-03-04T12:00:55.048Z,52.34
2023-03-04T12:01:55.022Z,52.28
2023-03-04T12:02:55.023Z,52.09
2023-03-04T12:03:55.073Z,51.80
2023-03-04T12:04:55.035Z,52.09
2023-03-04T12:05:55.119Z,52.09
2023-03-04T12:06:54.946Z,51.80
2023-03-04T12:07:54.928Z,51.99
2023-03-04T12:08:54.915Z,51.49
2023-03-04T12:09:54.894Z,51.87
2023-03-04T12:10:54.909Z,51.87
2023-03-04T12:11:54.864Z,52.06
2023-03-04T12:12:54.851Z,51.97
2023-03-04T12:13:54.833Z,52.06
2023-03-04T12:14:54.816Z,52.06
2023-03-04T12:15:54.884Z,51.87
2023-03-04T12:16:54.790Z,51.97
2023-03-04T12:17:54.783Z,51.97
2023-03-04T12:18:54.780Z,52.06
2023-03-04T12:19:54.768Z,52.06
2023-03-04T12:20:54.724Z,51.87
2023-03-04T12:21:54.721Z,51.87
2023-03-04T12:22:54.708Z,51.97
2023-03-04T12:23:54.676Z,51.78
2023-03-04T12:24:54.659Z,51.87
2023-03-04T12:25:54.645Z,51.87
2023-03-04T12:26:54.633Z,51.78
2023-03-04T12:27:54.637Z,51.97
2023-03-04T12:28:54.606Z,52.15
2023-03-04T12:29:54.580Z,52.15
2023-03-04T12:30:54.681Z,51.97
2023-03-04T12:31:54.548Z,51.97
2023-03-04T12:32:54.538Z,52.53
2023-03-04T12:33:54.518Z,52.34
2023-03-04T12:34:54.504Z,51.97
2023-03-04T12:35:54.602Z,52.06
2023-03-04T12:36:54.476Z,51.87
2023-03-04T12:37:54.448Z,51.97
2023-03-04T12:38:54.441Z,51.75
2023-03-04T12:39:54.431Z,52.51
2023-03-04T12:40:54.409Z,52.03
2023-03-04T12:41:54.396Z,52.41
2023-03-04T12:42:54.383Z,52.32
2023-03-04T12:43:54.365Z,52.61
2023-03-04T12:44:54.348Z,51.93
2023-03-04T12:45:54.321Z,52.32
2023-03-04T12:46:54.315Z,52.22
2023-03-04T12:47:54.304Z,52.32
2023-03-04T12:48:54.419Z,52.41
2023-03-04T12:49:54.276Z,52.32
2023-03-04T12:50:54.273Z,52.03
2023-03-04T12:51:54.235Z,52.41